Time;durP1;ratioP1;P1;durP2;ratioP2;P2;SDS_P1;SDS_P2;PMS_P1;PMS_P2;Temp;Humidity;BMP_temperature;BMP_pressure;BME280_temperature;BME280_humidity;BME280_pressure;Samples;Min_cycle;Max_cycle;Signal;HPM_P1;HPM_P2
2021/10/18 00:02:20;;;;;;;9.07;4.90;;;;;;;;;;5147592;27;20015;-71
2021/10/18 00:04:47;;;;;;;8.38;4.95;;;;;;;;;;5149597;27;20026;-71
2021/10/18 00:07:13;;;;;;;6.97;4.53;;;;;;;;;;5149507;27;20014;-71
2021/10/18 00:09:39;;;;;;;7.68;4.90;;;;;;;;;;5148769;27;20022;-71
2021/10/18 00:12:05;;;;;;;11.55;5.15;;;;;;;;;;5147579;27;20051;-71
2021/10/18 00:14:31;;;;;;;9.05;5.13;;;;;;;;;;5149392;27;20050;-71
2021/10/18 00:16:58;;;;;;;10.95;4.93;;;;;;;;;;5147918;27;20022;-71
2021/10/18 00:19:24;;;;;;;14.85;5.15;;;;;;;;;;5149025;27;20386;-71
2021/10/18 00:21:50;;;;;;;10.02;4.90;;;;;;;;;;5149014;27;20132;-71
2021/10/18 00:24:16;;;;;;;8.18;4.57;;;;;;;;;;5149088;27;20033;-71
2021/10/18 00:26:42;;;;;;;11.18;4.88;;;;;;;;;;5147553;27;20022;-71
2021/10/18 00:29:08;;;;;;;8.93;4.45;;;;;;;;;;5148829;27;20022;-71
2021/10/18 00:31:35;;;;;;;9.80;4.68;;;;;;;;;;5149042;27;20022;-71
2021/10/18 00:34:01;;;;;;;10.93;5.47;;;;;;;;;;5148622;27;20021;-71
2021/10/18 00:36:27;;;;;;;11.85;5.10;;;;;;;;;;5148633;27;20026;-70
2021/10/18 00:38:53;;;;;;;8.25;5.18;;;;;;;;;;5147162;27;20963;-71
2021/10/18 00:41:20;;;;;;;7.20;5.35;;;;;;;;;;5148662;27;20508;-71
2021/10/18 00:43:48;;;;;;;6.93;4.88;;;;;;;;;;5148759;27;20565;-71
2021/10/18 00:46:17;;;;;;;7.10;4.40;;;;;;;;;;5148529;27;20378;-71
2021/10/18 00:48:43;;;;;;;7.82;4.63;;;;;;;;;;5148526;27;20080;-71
2021/10/18 00:51:10;;;;;;;6.43;4.65;;;;;;;;;;5148344;27;20109;-71
2021/10/18 00:53:37;;;;;;;9.70;4.90;;;;;;;;;;5146959;27;20057;-71
2021/10/18 00:56:03;;;;;;;8.68;4.97;;;;;;;;;;5148548;27;20030;-71
2021/10/18 00:58:30;;;;;;;7.07;4.78;;;;;;;;;;5148451;27;20054;-71
2021/10/18 01:00:56;;;;;;;10.65;5.13;;;;;;;;;;5148145;27;20041;-71
2021/10/18 01:03:22;;;;;;;9.95;4.88;;;;;;;;;;5147941;27;20034;-71
2021/10/18 01:05:49;;;;;;;9.07;4.93;;;;;;;;;;5148209;27;20109;-71
2021/10/18 01:08:15;;;;;;;8.40;5.35;;;;;;;;;;5146588;27;20034;-71
2021/10/18 01:10:41;;;;;;;9.65;4.93;;;;;;;;;;5148073;27;20057;-71
2021/10/18 01:13:07;;;;;;;8.98;4.68;;;;;;;;;;5147846;27;20076;-71
2021/10/18 01:15:33;;;;;;;9.02;5.50;;;;;;;;;;5148573;27;20084;-71
2021/10/18 01:18:00;;;;;;;7.05;5.43;;;;;;;;;;5148301;27;20355;-71
2021/10/18 01:20:29;;;;;;;8.65;5.50;;;;;;;;;;5147537;27;20061;-71
2021/10/18 01:22:55;;;;;;;11.38;5.72;;;;;;;;;;5148051;27;20037;-71
2021/10/18 01:25:22;;;;;;;9.95;5.55;;;;;;;;;;5148122;27;20095;-71
2021/10/18 01:27:49;;;;;;;7.13;5.45;;;;;;;;;;5148897;27;20586;-71
2021/10/18 01:30:15;;;;;;;7.90;4.95;;;;;;;;;;5150544;27;20026;-71
2021/10/18 01:32:43;;;;;;;7.85;5.10;;;;;;;;;;5142189;27;20028;-71
2021/10/18 01:35:09;;;;;;;9.75;5.45;;;;;;;;;;5131287;27;20518;-71
2021/10/18 01:37:35;;;;;;;12.18;6.00;;;;;;;;;;5131380;27;20455;-71
2021/10/18 01:40:01;;;;;;;7.80;5.38;;;;;;;;;;5131074;27;20027;-71
2021/10/18 01:42:28;;;;;;;8.13;5.10;;;;;;;;;;5130564;27;20031;-71
2021/10/18 01:44:54;;;;;;;12.30;5.70;;;;;;;;;;5130768;27;20027;-71
2021/10/18 01:47:20;;;;;;;10.65;5.70;;;;;;;;;;5131398;27;20020;-71
2021/10/18 01:49:46;;;;;;;8.63;5.15;;;;;;;;;;5130945;27;20098;-71
2021/10/18 01:52:12;;;;;;;7.88;5.20;;;;;;;;;;5129561;27;20023;-71
2021/10/18 01:54:38;;;;;;;7.78;4.90;;;;;;;;;;5131324;27;20031;-71
2021/10/18 01:57:04;;;;;;;7.20;5.32;;;;;;;;;;5131061;27;20029;-71
2021/10/18 01:59:31;;;;;;;9.98;4.85;;;;;;;;;;5144124;27;20550;-71
2021/10/18 02:01:57;;;;;;;8.05;5.30;;;;;;;;;;5150603;27;20075;-71
2021/10/18 02:04:23;;;;;;;8.73;4.97;;;;;;;;;;5151496;27;20018;-71
2021/10/18 02:06:49;;;;;;;8.98;5.03;;;;;;;;;;5151581;27;20022;-71
2021/10/18 02:09:15;;;;;;;9.77;5.50;;;;;;;;;;5151788;27;20064;-72
2021/10/18 02:11:41;;;;;;;7.93;4.75;;;;;;;;;;5151559;27;20022;-71
2021/10/18 02:14:07;;;;;;;9.30;4.95;;;;;;;;;;5150487;27;20027;-71
2021/10/18 02:16:33;;;;;;;10.85;4.43;;;;;;;;;;5151164;27;20041;-70
2021/10/18 02:19:00;;;;;;;7.72;4.47;;;;;;;;;;5151113;27;20482;-72
2021/10/18 02:21:26;;;;;;;7.95;4.70;;;;;;;;;;5151219;27;20931;-71
2021/10/18 02:23:52;;;;;;;8.93;4.20;;;;;;;;;;5149887;27;20022;-71
2021/10/18 02:26:18;;;;;;;7.00;3.90;;;;;;;;;;5151095;27;20033;-71
2021/10/18 02:28:44;;;;;;;5.22;4.07;;;;;;;;;;5151005;27;20105;-71
2021/10/18 02:31:10;;;;;;;3.92;3.53;;;;;;;;;;5150900;27;20030;-71
2021/10/18 02:33:37;;;;;;;7.18;3.80;;;;;;;;;;5151131;27;20105;-71
2021/10/18 02:36:03;;;;;;;6.22;3.35;;;;;;;;;;5149640;27;20033;-71
2021/10/18 02:38:29;;;;;;;5.78;3.53;;;;;;;;;;5151044;27;20585;-71
2021/10/18 02:40:55;;;;;;;9.10;3.80;;;;;;;;;;5149766;27;20027;-71
2021/10/18 02:43:22;;;;;;;4.55;3.90;;;;;;;;;;5150931;27;20037;-71
2021/10/18 02:45:49;;;;;;;3.97;3.42;;;;;;;;;;5150851;27;20255;-71
2021/10/18 02:48:16;;;;;;;7.07;4.10;;;;;;;;;;5148991;27;20337;-71
2021/10/18 02:50:42;;;;;;;7.35;4.15;;;;;;;;;;5150655;27;20442;-71
2021/10/18 02:53:08;;;;;;;4.50;3.35;;;;;;;;;;5146648;27;20505;-71
2021/10/18 02:55:34;;;;;;;4.57;3.65;;;;;;;;;;5137398;27;20046;-72
2021/10/18 02:58:00;;;;;;;5.20;3.28;;;;;;;;;;5145714;27;20023;-72
2021/10/18 03:00:27;;;;;;;5.00;3.20;;;;;;;;;;5146053;27;20079;-71
2021/10/18 03:02:53;;;;;;;3.97;3.33;;;;;;;;;;5132444;27;20145;-72
2021/10/18 03:05:19;;;;;;;3.45;2.90;;;;;;;;;;5122082;27;20034;-71
2021/10/18 03:07:50;;;;;;;4.35;3.00;;;;;;;;;;5122844;27;20624;-71
2021/10/18 03:10:16;;;;;;;5.45;3.13;;;;;;;;;;5120370;27;20115;-71
2021/10/18 03:12:42;;;;;;;5.20;3.00;;;;;;;;;;5123032;27;20487;-71
2021/10/18 03:15:09;;;;;;;5.80;3.42;;;;;;;;;;5122768;27;20487;-71
2021/10/18 03:17:35;;;;;;;4.35;2.85;;;;;;;;;;5123771;27;20467;-72
2021/10/18 03:20:01;;;;;;;5.25;3.17;;;;;;;;;;5142942;27;20041;-71
2021/10/18 03:22:27;;;;;;;5.20;3.40;;;;;;;;;;5141686;27;20031;-71
2021/10/18 03:24:53;;;;;;;7.78;3.88;;;;;;;;;;5143126;27;20025;-71
2021/10/18 03:27:21;;;;;;;4.45;3.45;;;;;;;;;;5143228;27;20046;-71
2021/10/18 03:29:47;;;;;;;5.22;3.20;;;;;;;;;;5141138;27;20386;-71
2021/10/18 03:32:13;;;;;;;6.40;3.95;;;;;;;;;;5142635;27;20023;-71
2021/10/18 03:34:40;;;;;;;4.03;3.03;;;;;;;;;;5143058;27;20059;-71
2021/10/18 03:37:06;;;;;;;6.03;3.10;;;;;;;;;;5143188;27;20098;-71
2021/10/18 03:39:32;;;;;;;4.22;3.15;;;;;;;;;;5140654;27;20037;-71
2021/10/18 03:41:59;;;;;;;5.28;3.45;;;;;;;;;;5142740;27;20027;-71
2021/10/18 03:44:25;;;;;;;3.50;3.00;;;;;;;;;;5141285;27;20742;-72
2021/10/18 03:46:51;;;;;;;4.30;3.20;;;;;;;;;;5141912;27;20803;-71
2021/10/18 03:49:17;;;;;;;4.53;3.20;;;;;;;;;;5142171;27;20027;-71
2021/10/18 03:51:43;;;;;;;7.22;3.40;;;;;;;;;;5142109;27;20129;-71
2021/10/18 03:54:09;;;;;;;5.10;2.83;;;;;;;;;;5140711;27;20518;-71
2021/10/18 03:56:35;;;;;;;3.92;3.25;;;;;;;;;;5142474;27;20045;-72
2021/10/18 03:59:02;;;;;;;4.25;2.60;;;;;;;;;;5142296;27;20470;-72
2021/10/18 04:01:28;;;;;;;3.33;2.85;;;;;;;;;;5142383;27;20058;-71
2021/10/18 04:03:54;;;;;;;5.25;3.20;;;;;;;;;;5140268;27;20110;-71
2021/10/18 04:06:21;;;;;;;6.10;3.10;;;;;;;;;;5141970;27;20050;-71
2021/10/18 04:08:50;;;;;;;5.00;3.13;;;;;;;;;;5141782;27;20064;-71
2021/10/18 04:11:16;;;;;;;4.60;2.78;;;;;;;;;;5142265;27;20235;-71
2021/10/18 04:13:42;;;;;;;5.25;3.05;;;;;;;;;;5142743;27;20347;-71
2021/10/18 04:16:09;;;;;;;5.05;3.20;;;;;;;;;;5140700;27;20042;-71
2021/10/18 04:18:35;;;;;;;5.07;3.20;;;;;;;;;;5141088;27;20309;-71
2021/10/18 04:21:01;;;;;;;6.28;3.33;;;;;;;;;;5142117;27;20079;-71
2021/10/18 04:23:28;;;;;;;6.75;2.75;;;;;;;;;;5141787;27;20030;-71
2021/10/18 04:25:55;;;;;;;3.83;3.00;;;;;;;;;;5141514;27;20030;-71
2021/10/18 04:28:21;;;;;;;4.22;2.47;;;;;;;;;;5140411;27;20021;-71
2021/10/18 04:30:47;;;;;;;4.60;2.65;;;;;;;;;;5142015;27;20019;-72
2021/10/18 04:33:13;;;;;;;4.75;2.70;;;;;;;;;;5141992;27;20026;-71
2021/10/18 04:35:39;;;;;;;4.45;2.55;;;;;;;;;;5141378;27;20741;-71
2021/10/18 04:38:06;;;;;;;3.05;2.75;;;;;;;;;;5139763;27;20037;-72
2021/10/18 04:40:32;;;;;;;3.78;2.85;;;;;;;;;;5139748;27;20033;-71
2021/10/18 04:42:59;;;;;;;5.32;2.50;;;;;;;;;;5141475;27;20142;-71
2021/10/18 04:45:25;;;;;;;3.25;2.33;;;;;;;;;;5140193;27;20443;-71
2021/10/18 04:47:51;;;;;;;4.22;2.80;;;;;;;;;;5141548;27;20521;-71
2021/10/18 04:50:18;;;;;;;4.57;2.70;;;;;;;;;;5140050;27;20027;-71
2021/10/18 04:52:45;;;;;;;5.18;2.90;;;;;;;;;;5140902;27;20042;-71
2021/10/18 04:55:11;;;;;;;5.10;2.55;;;;;;;;;;5141100;27;20066;-72
2021/10/18 04:57:49;;;;;;;3.47;2.50;;;;;;;;;;5141795;27;20049;-71
2021/10/18 05:00:16;;;;;;;4.63;3.00;;;;;;;;;;5141208;27;20438;-71
2021/10/18 05:02:42;;;;;;;3.67;2.60;;;;;;;;;;5139732;27;20121;-71
2021/10/18 05:05:08;;;;;;;3.15;2.47;;;;;;;;;;5141061;27;20029;-72
2021/10/18 05:07:34;;;;;;;3.53;2.72;;;;;;;;;;5141454;27;20053;-71
2021/10/18 05:10:01;;;;;;;3.15;2.50;;;;;;;;;;5141385;27;20521;-72
2021/10/18 05:12:27;;;;;;;4.50;2.78;;;;;;;;;;5140480;27;20422;-71
2021/10/18 05:14:53;;;;;;;3.10;2.50;;;;;;;;;;5139915;27;20023;-71
2021/10/18 05:17:19;;;;;;;3.67;2.35;;;;;;;;;;5141382;27;20031;-71
2021/10/18 05:19:45;;;;;;;3.88;2.45;;;;;;;;;;5140925;27;20022;-71
2021/10/18 05:22:11;;;;;;;3.40;2.40;;;;;;;;;;5140919;27;20029;-72
2021/10/18 05:24:37;;;;;;;4.82;2.85;;;;;;;;;;5141020;27;20030;-71
2021/10/18 05:27:04;;;;;;;3.97;2.70;;;;;;;;;;5138524;27;20023;-71
2021/10/18 05:29:30;;;;;;;4.35;2.50;;;;;;;;;;5140438;27;20394;-71
2021/10/18 05:31:56;;;;;;;5.68;2.58;;;;;;;;;;5141222;27;20031;-71
2021/10/18 05:34:22;;;;;;;5.40;2.60;;;;;;;;;;5140820;27;20030;-71
2021/10/18 05:36:48;;;;;;;3.78;2.63;;;;;;;;;;5139284;27;20053;-71
2021/10/18 05:39:15;;;;;;;3.85;2.80;;;;;;;;;;5139151;27;20026;-71
2021/10/18 05:41:41;;;;;;;4.78;2.75;;;;;;;;;;5141123;27;20023;-71
2021/10/18 05:44:07;;;;;;;3.95;3.08;;;;;;;;;;5139878;27;20030;-71
2021/10/18 05:46:33;;;;;;;3.53;2.80;;;;;;;;;;5140530;27;20460;-71
2021/10/18 05:48:59;;;;;;;7.50;3.15;;;;;;;;;;5141222;27;20494;-71
2021/10/18 05:51:27;;;;;;;7.07;2.92;;;;;;;;;;5140914;27;20133;-71
2021/10/18 05:53:54;;;;;;;2.72;2.42;;;;;;;;;;5140291;27;20022;-71
2021/10/18 05:56:20;;;;;;;3.58;2.88;;;;;;;;;;5121204;27;20047;-71
2021/10/18 05:58:47;;;;;;;3.33;2.53;;;;;;;;;;5122206;28;20047;-71
2021/10/18 06:01:13;;;;;;;3.13;2.67;;;;;;;;;;5122246;28;20110;-71
2021/10/18 06:03:41;;;;;;;4.85;2.65;;;;;;;;;;5141745;27;20029;-72
2021/10/18 06:06:08;;;;;;;3.92;2.65;;;;;;;;;;5142906;27;20074;-69
2021/10/18 06:08:34;;;;;;;6.10;3.03;;;;;;;;;;5143077;27;20106;-69
2021/10/18 06:11:03;;;;;;;7.38;2.70;;;;;;;;;;5141258;27;20067;-69
2021/10/18 06:13:30;;;;;;;4.03;2.30;;;;;;;;;;5143396;27;20027;-69
2021/10/18 06:15:56;;;;;;;2.70;2.25;;;;;;;;;;5146481;27;20736;-69
2021/10/18 06:18:22;;;;;;;4.18;2.85;;;;;;;;;;5145594;27;20057;-70
2021/10/18 06:20:50;;;;;;;3.90;3.05;;;;;;;;;;5145604;27;20454;-69
2021/10/18 06:23:16;;;;;;;4.70;2.70;;;;;;;;;;5146302;27;20427;-70
2021/10/18 06:25:43;;;;;;;5.22;2.83;;;;;;;;;;5144910;27;20030;-70
2021/10/18 06:28:10;;;;;;;3.90;2.72;;;;;;;;;;5146099;27;20026;-70
2021/10/18 06:30:36;;;;;;;4.80;3.00;;;;;;;;;;5146417;27;20122;-70
2021/10/18 06:33:05;;;;;;;4.82;2.58;;;;;;;;;;5146522;27;20034;-70
2021/10/18 06:35:31;;;;;;;4.03;2.75;;;;;;;;;;5146172;27;20069;-70
2021/10/18 06:37:58;;;;;;;6.05;2.60;;;;;;;;;;5144120;27;20064;-70
2021/10/18 06:40:24;;;;;;;2.80;2.40;;;;;;;;;;5145892;27;20047;-70
2021/10/18 06:42:50;;;;;;;4.07;2.90;;;;;;;;;;5146131;27;20026;-70
2021/10/18 06:45:16;;;;;;;3.05;2.50;;;;;;;;;;5144732;27;20532;-70
2021/10/18 06:47:43;;;;;;;3.75;2.67;;;;;;;;;;5145681;27;20034;-69
2021/10/18 06:50:09;;;;;;;3.90;2.65;;;;;;;;;;5145399;27;20371;-70
2021/10/18 06:52:42;;;;;;;4.22;2.90;;;;;;;;;;5145898;27;20056;-70
2021/10/18 06:55:11;;;;;;;5.43;2.70;;;;;;;;;;5146076;27;20118;-70
2021/10/18 06:57:37;;;;;;;4.03;2.70;;;;;;;;;;5146063;27;20481;-70
2021/10/18 07:00:04;;;;;;;2.78;2.30;;;;;;;;;;5144261;27;20418;-71
2021/10/18 07:02:30;;;;;;;3.05;2.63;;;;;;;;;;5145600;27;20023;-71
2021/10/18 07:04:56;;;;;;;4.18;2.90;;;;;;;;;;5146075;27;20522;-71
2021/10/18 07:07:26;;;;;;;3.88;2.70;;;;;;;;;;5134987;27;20039;-69
2021/10/18 07:09:59;;;;;;;4.20;2.88;;;;;;;;;;5125169;27;20027;-70
2021/10/18 07:12:26;;;;;;;7.22;2.83;;;;;;;;;;5129709;27;20034;-70
2021/10/18 07:14:52;;;;;;;4.63;2.78;;;;;;;;;;5145898;27;20015;-71
2021/10/18 07:17:21;;;;;;;4.10;2.85;;;;;;;;;;5144213;27;20033;-71
2021/10/18 07:19:47;;;;;;;3.72;3.25;;;;;;;;;;5145198;27;20015;-71
2021/10/18 07:22:13;;;;;;;4.18;3.00;;;;;;;;;;5142840;27;20851;-71
2021/10/18 07:24:40;;;;;;;3.20;2.80;;;;;;;;;;5144985;27;20014;-71
2021/10/18 07:27:06;;;;;;;4.63;2.85;;;;;;;;;;5144361;27;20025;-71
2021/10/18 07:29:32;;;;;;;3.85;2.97;;;;;;;;;;5144173;27;20048;-71
2021/10/18 07:31:58;;;;;;;3.30;2.65;;;;;;;;;;5144692;27;20025;-71
2021/10/18 07:34:24;;;;;;;4.10;2.70;;;;;;;;;;5144087;27;20026;-71
2021/10/18 07:36:50;;;;;;;3.15;2.75;;;;;;;;;;5142456;27;20115;-71
2021/10/18 07:39:21;;;;;;;3.65;3.00;;;;;;;;;;5144580;27;20050;-71
2021/10/18 07:41:48;;;;;;;4.43;2.70;;;;;;;;;;5144619;27;20026;-71
2021/10/18 07:44:15;;;;;;;3.75;3.10;;;;;;;;;;5144478;27;20096;-71
2021/10/18 07:46:41;;;;;;;3.15;2.70;;;;;;;;;;5143433;27;20034;-71
2021/10/18 07:49:08;;;;;;;3.67;2.85;;;;;;;;;;5144618;27;20070;-71
2021/10/18 07:51:34;;;;;;;4.38;2.97;;;;;;;;;;5144556;27;20053;-71
2021/10/18 07:54:02;;;;;;;3.05;2.75;;;;;;;;;;5143201;27;20431;-71
2021/10/18 07:56:28;;;;;;;3.08;2.30;;;;;;;;;;5140518;27;20471;-72
2021/10/18 07:58:54;;;;;;;3.35;2.38;;;;;;;;;;5143758;27;20555;-71
2021/10/18 08:01:20;;;;;;;3.33;2.40;;;;;;;;;;5144628;27;20063;-71
2021/10/18 08:03:47;;;;;;;3.40;2.78;;;;;;;;;;5144829;27;20077;-71
2021/10/18 08:06:13;;;;;;;3.80;2.70;;;;;;;;;;5142757;27;20026;-71
2021/10/18 08:08:49;;;;;;;3.30;2.40;;;;;;;;;;5133355;27;20508;-71
2021/10/18 08:11:15;;;;;;;2.90;2.40;;;;;;;;;;5125557;27;20501;-71
2021/10/18 08:13:41;;;;;;;4.50;2.50;;;;;;;;;;5138875;27;20030;-71
2021/10/18 08:16:08;;;;;;;4.53;2.53;;;;;;;;;;5143495;27;20033;-71
2021/10/18 08:18:35;;;;;;;5.00;3.50;;;;;;;;;;5143433;27;20018;-71
2021/10/18 08:21:02;;;;;;;4.07;3.38;;;;;;;;;;5143725;27;20026;-71
2021/10/18 08:23:28;;;;;;;5.22;3.53;;;;;;;;;;5143548;27;20014;-71
2021/10/18 08:25:54;;;;;;;4.88;3.53;;;;;;;;;;5140761;27;20507;-71
2021/10/18 08:28:20;;;;;;;4.25;3.58;;;;;;;;;;5143636;27;20362;-71
2021/10/18 08:30:46;;;;;;;3.92;3.33;;;;;;;;;;5143508;27;20770;-71
2021/10/18 08:33:12;;;;;;;3.40;2.80;;;;;;;;;;5143553;27;20015;-71
2021/10/18 08:35:38;;;;;;;4.35;2.33;;;;;;;;;;5141725;27;20038;-71
2021/10/18 08:46:04;;;;;;;2.80;2.53;;;;;;;;;;5143085;27;20280;-71
2021/10/18 08:48:31;;;;;;;4.40;2.25;;;;;;;;;;5141709;27;20025;-71
2021/10/18 08:50:57;;;;;;;2.60;2.33;;;;;;;;;;5143567;27;20075;-71
2021/10/18 08:53:23;;;;;;;4.38;2.85;;;;;;;;;;5133140;27;20042;-71
2021/10/18 08:55:50;;;;;;;3.63;2.55;;;;;;;;;;5139813;27;20039;-71
2021/10/18 08:58:17;;;;;;;3.22;2.47;;;;;;;;;;5142190;27;20045;-72
2021/10/18 09:00:48;;;;;;;5.63;2.80;;;;;;;;;;5143146;27;20080;-71
2021/10/18 09:03:18;;;;;;;3.53;2.73;;;;;;;;;;5143185;27;20026;-71
2021/10/18 09:05:44;;;;;;;7.72;3.15;;;;;;;;;;5143849;27;20106;-71
2021/10/18 09:08:26;;;;;;;4.22;3.00;;;;;;;;;;5143697;27;20484;-71
2021/10/18 09:11:03;;;;;;;3.25;2.60;;;;;;;;;;5142410;27;20498;-71
2021/10/18 09:13:30;;;;;;;2.85;2.47;;;;;;;;;;5143766;27;20571;-71
2021/10/18 09:15:56;;;;;;;6.05;3.22;;;;;;;;;;5143671;27;20047;-71
2021/10/18 09:18:22;;;;;;;5.05;2.80;;;;;;;;;;5143585;27;20552;-71
2021/10/18 09:20:49;;;;;;;4.22;2.50;;;;;;;;;;5142362;27;20842;-71
2021/10/18 09:23:31;;;;;;;4.28;2.67;;;;;;;;;;5143685;27;20474;-71
2021/10/18 09:26:02;;;;;;;3.03;2.35;;;;;;;;;;5143402;27;20063;-71
2021/10/18 09:28:29;;;;;;;3.45;2.63;;;;;;;;;;5143297;27;20113;-71
2021/10/18 09:30:55;;;;;;;3.58;2.75;;;;;;;;;;5142349;27;20019;-71
2021/10/18 09:33:40;;;;;;;3.97;2.58;;;;;;;;;;5143770;27;20355;-71
2021/10/18 09:36:13;;;;;;;3.85;2.50;;;;;;;;;;5143421;27;20091;-71
2021/10/18 09:38:40;;;;;;;3.03;2.47;;;;;;;;;;5142665;27;20030;-71
2021/10/18 09:41:06;;;;;;;3.30;2.50;;;;;;;;;;5141327;27;20478;-71
2021/10/18 09:43:39;;;;;;;3.97;2.63;;;;;;;;;;5140021;27;20489;-71
2021/10/18 10:52:41;;;;;;;11.55;9.43;;;;;;;;;;5145905;27;20057;-71
2021/10/18 10:55:20;;;;;;;8.27;7.47;;;;;;;;;;5146318;27;20022;-72
2021/10/18 10:57:48;;;;;;;6.40;5.75;;;;;;;;;;5141866;27;20117;-70
2021/10/18 11:00:52;;;;;;;4.22;2.97;;;;;;;;;;5144089;27;20047;-71
2021/10/18 11:03:30;;;;;;;8.82;5.63;;;;;;;;;;5079725;28;20028;-70
2021/10/18 11:06:15;;;;;;;10.18;5.32;;;;;;;;;;5081417;28;20796;-70
2021/10/18 11:08:45;;;;;;;7.15;4.03;;;;;;;;;;5118576;27;20089;-70
2021/10/18 11:11:14;;;;;;;8.30;4.82;;;;;;;;;;5143018;27;20041;-70
2021/10/18 11:13:43;;;;;;;3.58;2.85;;;;;;;;;;5144623;27;20022;-71
2021/10/18 11:16:09;;;;;;;5.45;3.28;;;;;;;;;;5145215;27;20057;-70
2021/10/18 11:18:35;;;;;;;5.82;2.97;;;;;;;;;;5144872;27;20101;-70
2021/10/18 11:21:15;;;;;;;3.95;3.28;;;;;;;;;;5145586;27;20046;-71
2021/10/18 11:23:53;;;;;;;6.60;3.05;;;;;;;;;;5143554;27;20594;-71
2021/10/18 11:26:19;;;;;;;4.95;3.03;;;;;;;;;;5145204;27;20054;-71
2021/10/18 11:28:45;;;;;;;3.45;2.80;;;;;;;;;;5145588;27;20030;-70
2021/10/18 11:31:11;;;;;;;4.25;2.50;;;;;;;;;;5145145;27;20026;-73
2021/10/18 11:33:38;;;;;;;2.38;2.17;;;;;;;;;;5144081;27;20543;-71
2021/10/18 11:36:17;;;;;;;3.58;2.58;;;;;;;;;;5131320;27;20130;-72
2021/10/18 11:38:44;;;;;;;4.25;2.60;;;;;;;;;;5145085;27;20063;-72
2021/10/18 11:41:11;;;;;;;3.92;2.25;;;;;;;;;;5144112;27;20389;-72
2021/10/18 11:43:37;;;;;;;3.95;2.75;;;;;;;;;;5144696;27;20087;-71
2021/10/18 11:46:03;;;;;;;4.93;2.60;;;;;;;;;;5145173;27;20418;-72
2021/10/18 11:48:30;;;;;;;3.47;2.38;;;;;;;;;;5143428;27;20513;-72
2021/10/18 11:51:01;;;;;;;3.97;2.20;;;;;;;;;;5144761;27;20018;-71
2021/10/18 11:53:28;;;;;;;3.72;2.47;;;;;;;;;;5124117;27;20027;-72
2021/10/18 11:55:58;;;;;;;2.55;2.00;;;;;;;;;;5134760;27;20510;-72
2021/10/18 11:58:31;;;;;;;3.28;2.50;;;;;;;;;;5142924;27;20034;-71
2021/10/18 12:00:58;;;;;;;5.40;2.88;;;;;;;;;;5144829;27;20089;-72
2021/10/18 12:03:24;;;;;;;3.42;2.30;;;;;;;;;;5144220;27;20038;-71
2021/10/18 12:05:52;;;;;;;3.50;2.75;;;;;;;;;;5144714;27;20098;-71
2021/10/18 12:08:19;;;;;;;6.55;2.55;;;;;;;;;;5143188;27;20468;-72
2021/10/18 12:10:46;;;;;;;5.38;2.53;;;;;;;;;;5144875;27;20082;-72
2021/10/18 12:13:23;;;;;;;3.70;2.28;;;;;;;;;;5141959;27;20055;-73
2021/10/18 12:16:08;;;;;;;4.38;2.40;;;;;;;;;;5142381;27;20546;-73
2021/10/18 12:18:39;;;;;;;3.20;2.22;;;;;;;;;;5142065;27;20031;-73
2021/10/18 12:21:07;;;;;;;2.55;2.33;;;;;;;;;;5140713;27;20031;-73
2021/10/18 12:23:38;;;;;;;3.58;2.53;;;;;;;;;;5140445;27;20045;-73
2021/10/18 12:26:04;;;;;;;4.50;2.90;;;;;;;;;;5141444;27;20023;-73
2021/10/18 12:28:57;;;;;;;4.70;2.60;;;;;;;;;;5142120;27;20034;-73
2021/10/18 12:31:34;;;;;;;3.15;2.47;;;;;;;;;;5117720;27;20043;-73
2021/10/18 12:34:09;;;;;;;3.05;2.28;;;;;;;;;;5139676;27;20091;-73
2021/10/18 12:36:48;;;;;;;3.05;2.38;;;;;;;;;;5142417;27;20045;-73
2021/10/18 12:39:14;;;;;;;3.97;2.45;;;;;;;;;;5142071;27;20050;-73
2021/10/18 12:41:44;;;;;;;3.40;2.45;;;;;;;;;;5141311;27;20026;-73
2021/10/18 12:44:13;;;;;;;2.47;2.20;;;;;;;;;;5141368;27;20041;-73
2021/10/18 12:46:40;;;;;;;4.13;2.55;;;;;;;;;;5140179;27;20031;-73
2021/10/18 12:49:09;;;;;;;3.90;2.20;;;;;;;;;;5141424;27;20038;-74
2021/10/18 12:51:41;;;;;;;2.20;1.95;;;;;;;;;;5141723;27;20026;-73
2021/10/18 12:54:21;;;;;;;2.88;2.25;;;;;;;;;;5137962;27;20023;-74
2021/10/18 12:57:06;;;;;;;2.92;2.22;;;;;;;;;;5141181;27;20039;-73
2021/10/18 12:59:33;;;;;;;5.38;2.30;;;;;;;;;;5140994;27;20051;-73
2021/10/18 13:02:18;;;;;;;3.22;2.38;;;;;;;;;;5140022;27;20023;-73
2021/10/18 13:05:03;;;;;;;3.47;2.03;;;;;;;;;;5139874;27;20022;-73
2021/10/18 13:07:30;;;;;;;7.13;2.20;;;;;;;;;;5139502;27;20553;-73
2021/10/18 13:09:56;;;;;;;3.35;2.30;;;;;;;;;;5138971;27;20022;-73
2021/10/18 13:12:23;;;;;;;3.90;2.33;;;;;;;;;;5139798;27;20075;-73
2021/10/18 13:14:49;;;;;;;3.28;2.10;;;;;;;;;;5139186;27;20279;-73
2021/10/18 13:17:16;;;;;;;3.92;2.47;;;;;;;;;;5137420;27;20042;-73
2021/10/18 13:19:42;;;;;;;3.25;2.50;;;;;;;;;;5140450;27;20026;-73
2021/10/18 13:22:08;;;;;;;2.50;2.22;;;;;;;;;;5141315;27;20031;-73
2021/10/18 13:24:34;;;;;;;2.90;2.30;;;;;;;;;;5143122;27;20423;-73
2021/10/18 13:27:01;;;;;;;2.88;2.20;;;;;;;;;;5143078;27;20031;-73
2021/10/18 13:29:28;;;;;;;4.57;2.75;;;;;;;;;;5145200;27;20486;-73
2021/10/18 13:31:54;;;;;;;2.33;2.00;;;;;;;;;;5144915;27;20027;-73
2021/10/18 13:34:20;;;;;;;3.45;2.08;;;;;;;;;;5145185;27;20049;-73
2021/10/18 13:36:46;;;;;;;4.38;2.50;;;;;;;;;;5144915;27;20080;-73
2021/10/18 13:39:12;;;;;;;4.13;2.08;;;;;;;;;;5142893;27;20019;-73
2021/10/18 13:41:38;;;;;;;3.78;2.30;;;;;;;;;;5145171;27;20030;-73
2021/10/18 13:44:07;;;;;;;3.25;2.42;;;;;;;;;;5144730;27;20029;-73
2021/10/18 13:46:34;;;;;;;3.88;2.30;;;;;;;;;;5144470;27;20026;-73
2021/10/18 13:49:00;;;;;;;2.17;1.95;;;;;;;;;;5144857;27;20518;-73
2021/10/18 13:51:27;;;;;;;3.53;2.50;;;;;;;;;;5143260;27;20241;-73
2021/10/18 13:53:54;;;;;;;3.05;2.40;;;;;;;;;;5142568;27;20295;-73
2021/10/18 13:56:21;;;;;;;3.42;2.38;;;;;;;;;;5144511;27;20479;-73
2021/10/18 13:58:47;;;;;;;3.20;2.25;;;;;;;;;;5144719;27;20050;-73
2021/10/18 14:01:14;;;;;;;5.60;2.20;;;;;;;;;;5143910;27;20086;-74
2021/10/18 14:03:40;;;;;;;3.13;2.35;;;;;;;;;;5143486;27;20027;-74
2021/10/18 14:06:07;;;;;;;3.65;2.20;;;;;;;;;;5144169;27;20502;-73
2021/10/18 14:08:34;;;;;;;3.55;2.40;;;;;;;;;;5144085;27;20027;-73
2021/10/18 14:11:00;;;;;;;3.30;2.15;;;;;;;;;;5144825;27;20023;-73
2021/10/18 14:13:26;;;;;;;2.72;2.10;;;;;;;;;;5139292;27;20022;-73
2021/10/18 14:15:52;;;;;;;3.47;2.10;;;;;;;;;;5144274;27;20030;-73
2021/10/18 14:18:18;;;;;;;4.07;2.47;;;;;;;;;;5144141;27;20026;-73
2021/10/18 14:20:45;;;;;;;4.00;2.20;;;;;;;;;;5142597;27;20027;-73
2021/10/18 14:23:11;;;;;;;2.67;2.10;;;;;;;;;;5144214;27;20431;-73
2021/10/18 14:25:37;;;;;;;2.85;2.25;;;;;;;;;;5143682;27;20029;-73
2021/10/18 14:28:05;;;;;;;5.10;2.40;;;;;;;;;;5143881;27;20019;-73
2021/10/18 14:30:33;;;;;;;4.47;2.10;;;;;;;;;;5143532;27;20421;-73
2021/10/18 14:32:59;;;;;;;3.03;2.33;;;;;;;;;;5144133;27;20408;-73
2021/10/18 14:35:26;;;;;;;4.75;2.10;;;;;;;;;;5141039;27;20035;-72
2021/10/18 14:37:52;;;;;;;4.35;2.90;;;;;;;;;;5144070;27;20053;-73
2021/10/18 14:40:18;;;;;;;3.80;2.47;;;;;;;;;;5143659;27;20531;-73
2021/10/18 14:42:44;;;;;;;3.05;2.00;;;;;;;;;;5143650;27;20062;-73
2021/10/18 14:45:11;;;;;;;3.83;2.40;;;;;;;;;;5143979;27;20041;-73
2021/10/18 14:47:37;;;;;;;2.72;2.25;;;;;;;;;;5141710;27;20026;-74
2021/10/18 14:50:04;;;;;;;4.75;2.22;;;;;;;;;;5143960;27;20026;-73
2021/10/18 14:52:31;;;;;;;3.00;1.98;;;;;;;;;;5141792;27;20551;-73
2021/10/18 14:54:58;;;;;;;2.72;2.00;;;;;;;;;;5143820;27;20027;-73
2021/10/18 14:57:24;;;;;;;4.30;2.50;;;;;;;;;;5142770;27;20042;-73
2021/10/18 14:59:52;;;;;;;3.45;2.20;;;;;;;;;;5143742;27;20085;-73
2021/10/18 15:02:18;;;;;;;3.22;2.30;;;;;;;;;;5141595;27;20832;-73
2021/10/18 15:04:44;;;;;;;3.10;2.10;;;;;;;;;;5143217;27;20475;-73
2021/10/18 15:07:13;;;;;;;3.22;2.38;;;;;;;;;;5141988;27;20027;-73
2021/10/18 15:09:41;;;;;;;4.00;2.53;;;;;;;;;;5141971;27;20052;-73
2021/10/18 15:12:07;;;;;;;3.40;2.33;;;;;;;;;;5142011;27;20022;-73
2021/10/18 15:14:33;;;;;;;4.95;2.50;;;;;;;;;;5140795;27;20030;-73
2021/10/18 15:17:02;;;;;;;3.13;2.28;;;;;;;;;;5140051;27;20387;-73
2021/10/18 15:19:28;;;;;;;6.13;2.20;;;;;;;;;;5143000;27;20550;-73
2021/10/18 15:21:55;;;;;;;3.25;2.40;;;;;;;;;;5143043;27;20069;-73
2021/10/18 15:24:22;;;;;;;3.85;2.38;;;;;;;;;;5142945;27;20023;-73
2021/10/18 15:26:48;;;;;;;4.00;2.35;;;;;;;;;;5141256;27;20103;-73
2021/10/18 15:29:15;;;;;;;3.65;2.70;;;;;;;;;;5142753;27;20368;-74
2021/10/18 15:31:41;;;;;;;3.95;2.30;;;;;;;;;;5142272;27;20027;-73
2021/10/18 15:34:08;;;;;;;6.38;2.45;;;;;;;;;;5134201;27;20079;-73
2021/10/18 15:36:34;;;;;;;3.83;2.58;;;;;;;;;;5139708;27;20027;-73
2021/10/18 15:39:01;;;;;;;6.10;2.50;;;;;;;;;;5121286;27;20016;-73
2021/10/18 15:41:30;;;;;;;5.07;2.55;;;;;;;;;;5121868;27;20145;-73
2021/10/18 15:43:56;;;;;;;4.40;2.22;;;;;;;;;;5121822;27;20106;-73
2021/10/18 15:46:22;;;;;;;8.90;2.72;;;;;;;;;;5121044;27;20514;-73
2021/10/18 15:48:48;;;;;;;13.00;2.60;;;;;;;;;;5119888;27;20027;-73
2021/10/18 15:51:14;;;;;;;4.10;2.30;;;;;;;;;;5121584;27;20031;-73
2021/10/18 15:53:42;;;;;;;5.47;2.55;;;;;;;;;;5122589;27;20057;-73
2021/10/18 15:56:09;;;;;;;5.05;2.90;;;;;;;;;;5142120;27;20033;-73
2021/10/18 15:58:36;;;;;;;2.95;2.50;;;;;;;;;;5141963;27;20043;-73
2021/10/18 16:01:02;;;;;;;5.65;2.70;;;;;;;;;;5140227;27;20507;-73